createdAt,value
2022-10-03T00:02:26.861Z,70.14
2022-10-03T00:05:07.716Z,70.03
2022-10-03T00:07:57.282Z,70.17
2022-10-03T00:10:49.929Z,70.07
2022-10-03T00:13:45.851Z,70.21
2022-10-03T00:16:34.702Z,70.31
2022-10-03T00:19:22.945Z,69.79
2022-10-03T00:22:10.716Z,70.12
2022-10-03T00:24:56.005Z,70.01
2022-10-03T00:27:25.902Z,70.46
2022-10-03T00:30:13.958Z,70.13
2022-10-03T00:32:52.913Z,70.29
2022-10-03T00:35:31.880Z,69.95
2022-10-03T00:37:58.998Z,70.26
2022-10-03T00:40:37.126Z,70.30
2022-10-03T00:43:31.984Z,70.21
2022-10-03T00:46:31.293Z,70.11
2022-10-03T00:49:25.494Z,69.63
2022-10-03T00:52:04.734Z,70.35
2022-10-03T00:54:34.656Z,70.14
2022-10-03T00:57:25.923Z,70.21
2022-10-03T01:00:27.018Z,70.37
2022-10-03T01:03:17.029Z,69.75
2022-10-03T01:06:00.095Z,70.08
2022-10-03T01:08:41.626Z,69.69
2022-10-03T01:11:30.970Z,69.98
2022-10-03T01:14:29.023Z,69.93
2022-10-03T01:17:14.850Z,69.76
2022-10-03T01:20:22.731Z,70.15
2022-10-03T01:23:14.628Z,69.74
2022-10-03T01:26:08.076Z,69.58
2022-10-03T01:28:58.717Z,69.67
2022-10-03T01:32:05.723Z,69.97
2022-10-03T01:34:49.607Z,69.83
2022-10-03T01:37:34.967Z,69.98
2022-10-03T01:40:12.364Z,69.70
2022-10-03T01:43:03.083Z,69.50
2022-10-03T01:45:48.394Z,69.49
2022-10-03T01:48:37.750Z,69.56
2022-10-03T01:51:36.809Z,69.31
2022-10-03T01:54:07.564Z,69.53
2022-10-03T01:56:41.099Z,69.72
2022-10-03T01:59:22.556Z,69.49
2022-10-03T02:01:55.564Z,69.61
2022-10-03T02:04:37.770Z,69.78
2022-10-03T02:07:29.904Z,69.42
2022-10-03T02:10:25.951Z,69.56
2022-10-03T02:13:05.855Z,69.86
2022-10-03T02:15:50.528Z,69.59
2022-10-03T02:18:35.256Z,69.74
2022-10-03T02:21:08.453Z,69.97
2022-10-03T02:23:36.389Z,69.95
2022-10-03T02:26:09.471Z,69.72
2022-10-03T02:28:57.824Z,69.83
2022-10-03T02:31:57.249Z,69.75
2022-10-03T02:34:44.552Z,69.91
2022-10-03T02:37:33.641Z,70.11
2022-10-03T02:40:18.721Z,69.86
2022-10-03T02:43:17.202Z,70.06
2022-10-03T02:46:19.281Z,70.00
2022-10-03T02:49:37.685Z,70.09
2022-10-03T02:52:10.766Z,70.33
2022-10-03T02:54:53.386Z,69.81
2022-10-03T02:57:51.979Z,69.70
2022-10-03T03:00:53.455Z,70.18
2022-10-03T03:03:39.564Z,69.98
2022-10-03T03:06:49.146Z,70.03
2022-10-03T03:09:40.620Z,69.66
2022-10-03T03:12:19.907Z,69.56
2022-10-03T03:14:47.302Z,69.57
2022-10-03T03:17:23.610Z,69.57
2022-10-03T03:20:09.620Z,69.49
2022-10-03T03:22:57.057Z,69.77
2022-10-03T03:26:27.141Z,69.95
2022-10-03T03:29:40.990Z,69.49
2022-10-03T03:36:28.996Z,69.85
2022-10-03T03:39:18.251Z,69.69
2022-10-03T03:42:09.739Z,69.35
2022-10-03T03:45:10.423Z,69.43
2022-10-03T03:47:54.656Z,69.51
2022-10-03T03:50:35.333Z,69.50
2022-10-03T03:53:28.877Z,69.52
2022-10-03T03:56:37.653Z,69.30
2022-10-03T03:59:08.867Z,69.76
2022-10-03T04:02:32.028Z,69.59
2022-10-03T04:05:25.256Z,69.32
2022-10-03T04:08:12.489Z,69.55
2022-10-03T04:11:19.185Z,69.36
2022-10-03T04:14:07.501Z,69.22
2022-10-03T04:17:09.159Z,69.28
2022-10-03T04:19:42.348Z,69.44
2022-10-03T04:22:39.848Z,69.13
2022-10-03T04:25:10.545Z,69.53
2022-10-03T04:28:26.935Z,69.47
2022-10-03T04:31:32.695Z,69.20
2022-10-03T04:33:59.623Z,69.23
2022-10-03T04:36:33.966Z,69.05
2022-10-03T04:39:23.309Z,68.60
2022-10-03T04:41:59.964Z,69.41
2022-10-03T04:44:40.979Z,68.76
2022-10-03T04:47:42.620Z,68.92
2022-10-03T04:50:12.645Z,69.29
2022-10-03T04:52:50.835Z,68.75
2022-10-03T04:55:45.506Z,69.12
2022-10-03T04:58:23.336Z,69.15
2022-10-03T05:01:28.447Z,69.14
2022-10-03T05:04:16.722Z,69.41
2022-10-03T05:07:04.952Z,68.80
2022-10-03T05:09:54.406Z,68.95
2022-10-03T05:12:48.321Z,69.05
2022-10-03T05:15:26.711Z,69.00
2022-10-03T05:18:17.726Z,68.89
2022-10-03T05:21:35.119Z,68.71
2022-10-03T05:24:21.847Z,69.07
2022-10-03T05:27:09.207Z,68.96
2022-10-03T05:29:44.298Z,68.98
2022-10-03T05:32:18.289Z,69.06
2022-10-03T05:35:03.600Z,69.04
2022-10-03T05:37:48.890Z,68.56
2022-10-03T05:40:26.197Z,68.99
2022-10-03T05:42:53.191Z,69.01
2022-10-03T05:45:30.771Z,68.57
2022-10-03T05:51:09.402Z,68.92
2022-10-03T05:53:55.307Z,68.29
2022-10-03T05:56:59.684Z,68.74
2022-10-03T05:59:39.364Z,68.47
2022-10-03T06:02:53.082Z,68.48
2022-10-03T06:05:41.733Z,69.08
2022-10-03T06:08:23.609Z,68.71
2022-10-03T06:10:56.610Z,68.56
2022-10-03T06:13:35.859Z,68.76
2022-10-03T06:16:30.604Z,68.41
2022-10-03T06:19:24.918Z,69.02
2022-10-03T06:22:23.290Z,68.44
2022-10-03T06:25:08.107Z,69.14
2022-10-03T06:27:57.186Z,69.03
2022-10-03T06:30:32.844Z,68.69
2022-10-03T06:33:34.829Z,68.37
2022-10-03T06:36:30.047Z,68.94
2022-10-03T06:39:23.247Z,68.84
2022-10-03T06:42:30.911Z,68.97
2022-10-03T06:48:45.804Z,68.25
2022-10-03T06:51:49.717Z,68.67
2022-10-03T06:54:17.207Z,68.58
2022-10-03T06:56:57.882Z,68.38
2022-10-03T07:00:03.064Z,68.28
2022-10-03T07:14:26.817Z,67.65
2022-10-03T07:17:18.696Z,68.11
2022-10-03T07:20:19.629Z,67.77
2022-10-03T07:23:23.215Z,68.08
2022-10-03T07:26:12.403Z,68.07
2022-10-03T07:29:02.955Z,67.74
2022-10-03T07:31:38.730Z,68.28
2022-10-03T07:35:18.784Z,67.87
2022-10-03T07:39:20.113Z,67.85
2022-10-03T07:42:54.614Z,68.13
2022-10-03T07:46:09.935Z,67.66
2022-10-03T07:49:18.369Z,67.83
2022-10-03T07:52:11.058Z,67.76
2022-10-03T07:54:49.682Z,67.73
2022-10-03T07:58:01.680Z,68.05
2022-10-03T08:01:07.464Z,67.66
2022-10-03T08:04:13.315Z,67.51
2022-10-03T08:07:01.536Z,67.22
2022-10-03T08:10:05.885Z,67.39
2022-10-03T08:12:51.798Z,68.17
2022-10-03T08:15:26.699Z,68.00
2022-10-03T08:18:18.397Z,67.74
2022-10-03T08:21:05.763Z,67.75
2022-10-03T08:23:54.257Z,67.53
2022-10-03T08:26:55.890Z,67.40
2022-10-03T08:29:41.576Z,66.97
2022-10-03T08:32:39.585Z,66.89
2022-10-03T08:35:29.335Z,67.50
2022-10-03T08:37:59.376Z,67.41
2022-10-03T08:40:41.940Z,66.87
2022-10-03T08:43:37.393Z,66.77
2022-10-03T08:46:30.571Z,67.18
2022-10-03T08:49:30.621Z,66.42
2022-10-03T08:52:28.684Z,66.85
2022-10-03T08:55:29.563Z,67.29
2022-10-03T08:58:32.205Z,67.51
2022-10-03T09:01:39.051Z,67.29
2022-10-03T09:04:44.699Z,67.42
2022-10-03T09:10:37.284Z,68.03
2022-10-03T09:16:24.102Z,68.06
2022-10-03T09:22:02.925Z,67.90
2022-10-03T09:30:54.156Z,68.14
2022-10-03T09:33:40.301Z,68.27
2022-10-03T09:36:45.054Z,68.09
2022-10-03T09:42:40.976Z,68.27
2022-10-03T09:48:26.647Z,68.54
2022-10-03T09:54:18.137Z,69.39
2022-10-03T09:57:14.291Z,69.11
2022-10-03T10:00:04.051Z,68.93
2022-10-03T10:03:01.165Z,69.30
2022-10-03T10:05:50.899Z,68.88
2022-10-03T10:08:37.668Z,69.15
2022-10-03T10:11:38.915Z,69.24
2022-10-03T10:21:12.240Z,69.11
2022-10-03T10:31:49.758Z,68.65
2022-10-03T11:51:40.514Z,63.90
2022-10-03T11:54:48.494Z,63.77
2022-10-03T11:57:29.021Z,63.08
2022-10-03T12:03:34.345Z,64.19
2022-10-03T12:10:21.826Z,63.81
2022-10-03T12:15:51.559Z,62.59
2022-10-03T12:25:07.516Z,63.52
2022-10-03T12:58:28.538Z,62.85
2022-10-03T13:12:28.373Z,63.12
2022-10-03T13:15:39.004Z,63.36
2022-10-03T13:18:31.987Z,63.73
2022-10-03T13:34:28.293Z,65.56
2022-10-03T13:37:24.239Z,65.69
2022-10-03T13:42:56.174Z,66.04
2022-10-03T14:53:03.403Z,66.21
2022-10-03T15:22:26.437Z,66.34
2022-10-03T15:31:43.776Z,66.10
2022-10-03T15:34:28.669Z,66.24
2022-10-03T15:37:02.990Z,66.47
2022-10-03T15:43:40.149Z,66.35
2022-10-03T15:46:47.231Z,66.63
2022-10-03T15:59:08.519Z,66.27
2022-10-03T16:11:43.176Z,66.08
2022-10-03T16:14:18.196Z,66.83
2022-10-03T16:16:55.190Z,66.20
2022-10-03T16:19:44.801Z,66.44
2022-10-03T16:22:31.315Z,65.92
2022-10-03T16:26:10.251Z,65.97
2022-10-03T16:29:30.112Z,66.26
2022-10-03T16:32:31.055Z,66.29
2022-10-03T16:35:09.593Z,66.56
2022-10-03T16:41:34.955Z,66.24
2022-10-03T16:50:53.698Z,65.80
2022-10-03T16:53:24.151Z,65.89
2022-10-03T16:58:39.509Z,66.20
2022-10-03T17:01:26.823Z,66.20
2022-10-03T17:04:00.337Z,66.48
2022-10-03T17:09:35.054Z,66.42
2022-10-03T17:12:02.546Z,66.54
2022-10-03T17:14:40.167Z,66.21
2022-10-03T17:23:35.971Z,66.55
2022-10-03T17:29:16.735Z,66.37
2022-10-03T17:32:24.273Z,66.74
2022-10-03T17:50:16.040Z,66.92
2022-10-03T17:53:02.793Z,66.47
2022-10-03T17:55:46.438Z,66.88
2022-10-03T18:02:45.317Z,66.69
2022-10-03T18:05:42.629Z,66.89
2022-10-03T18:16:56.699Z,67.50
2022-10-03T18:53:59.352Z,66.51
2022-10-03T19:05:07.553Z,67.05
2022-10-03T19:32:43.760Z,67.53
2022-10-03T19:35:22.380Z,67.07
2022-10-03T19:38:23.833Z,67.18
2022-10-03T19:44:01.210Z,67.59
2022-10-03T19:46:38.023Z,66.89
2022-10-03T19:49:11.091Z,67.20
2022-10-03T19:54:37.423Z,67.48
2022-10-03T20:31:57.130Z,67.28
2022-10-03T20:34:25.408Z,67.33
2022-10-03T20:37:10.373Z,67.48
2022-10-03T20:39:44.220Z,67.28
2022-10-03T20:42:21.615Z,67.28
2022-10-03T20:45:00.583Z,66.59
2022-10-03T20:48:03.989Z,66.74
2022-10-03T20:50:42.715Z,67.37
2022-10-03T20:53:23.732Z,67.16
2022-10-03T20:56:33.486Z,67.19
2022-10-03T21:00:24.447Z,67.20
2022-10-03T21:03:28.915Z,67.76
2022-10-03T21:18:12.022Z,67.92
2022-10-03T21:21:00.881Z,67.36
2022-10-03T21:24:27.937Z,67.69
2022-10-03T21:49:47.531Z,68.08
2022-10-03T21:52:51.605Z,67.63
2022-10-03T21:55:45.433Z,67.56
2022-10-03T21:58:31.022Z,67.77
2022-10-03T22:01:46.199Z,67.64
2022-10-03T22:04:27.210Z,67.60
2022-10-03T22:07:13.546Z,67.78
2022-10-03T22:09:48.520Z,67.62
2022-10-03T22:12:16.070Z,67.30
2022-10-03T22:14:48.434Z,67.80
2022-10-03T22:17:21.402Z,68.12
2022-10-03T22:19:56.528Z,68.28
2022-10-03T22:22:51.063Z,67.94
2022-10-03T22:25:35.228Z,68.02
2022-10-03T22:28:26.718Z,67.92
2022-10-03T22:31:06.417Z,68.15
2022-10-03T22:33:40.758Z,68.02
2022-10-03T22:36:08.583Z,68.25
2022-10-03T22:38:36.434Z,68.42
2022-10-03T22:41:08.818Z,68.44
2022-10-03T22:43:36.627Z,68.04
2022-10-03T22:46:05.879Z,68.53
2022-10-03T22:48:40.041Z,68.59
2022-10-03T22:51:09.763Z,68.43
2022-10-03T22:53:36.879Z,68.67
2022-10-03T22:56:34.382Z,68.83
2022-10-03T22:59:02.168Z,68.68
2022-10-03T23:01:29.719Z,68.89
2022-10-03T23:04:00.010Z,68.85
2022-10-03T23:07:04.907Z,68.69
2022-10-03T23:09:51.785Z,68.64
2022-10-03T23:12:19.273Z,69.40
2022-10-03T23:14:48.419Z,68.67
2022-10-03T23:17:38.786Z,69.18
2022-10-03T23:20:18.150Z,68.85
2022-10-03T23:22:47.599Z,69.47
2022-10-03T23:25:24.730Z,69.67
2022-10-03T23:28:29.702Z,69.16
2022-10-03T23:31:01.916Z,69.48
2022-10-03T23:33:49.480Z,69.70
2022-10-03T23:36:24.182Z,69.04
2022-10-03T23:39:01.374Z,69.78
2022-10-03T23:41:43.532Z,69.98
2022-10-03T23:44:37.611Z,69.54
2022-10-03T23:47:07.812Z,69.55
2022-10-03T23:49:35.091Z,69.86
2022-10-03T23:52:02.163Z,70.63
2022-10-03T23:54:29.395Z,69.70
2022-10-03T23:57:00.411Z,69.72
2022-10-03T23:59:29.784Z,69.82
